sensor_id;sensor_type;location;lat;lon;timestamp;P1;durP1;ratioP1;P2;durP2;ratioP2
2854;SDS011;1435;49.472;10.940;2023-05-07T00:00:43;4.70;;;4.30;;
2854;SDS011;1435;49.472;10.940;2023-05-07T00:05:45;4.97;;;4.47;;
2854;SDS011;1435;49.472;10.940;2023-05-07T00:10:48;4.17;;;3.83;;
2854;SDS011;1435;49.472;10.940;2023-05-07T00:15:51;5.47;;;4.20;;
2854;SDS011;1435;49.472;10.940;2023-05-07T00:20:52;5.60;;;5.10;;
2854;SDS011;1435;49.472;10.940;2023-05-07T00:25:54;4.30;;;4.00;;
2854;SDS011;1435;49.472;10.940;2023-05-07T00:30:58;3.90;;;3.60;;
2854;SDS011;1435;49.472;10.940;2023-05-07T00:35:59;4.67;;;4.27;;
2854;SDS011;1435;49.472;10.940;2023-05-07T00:41:02;5.20;;;4.20;;
2854;SDS011;1435;49.472;10.940;2023-05-07T00:46:05;4.93;;;4.40;;
2854;SDS011;1435;49.472;10.940;2023-05-07T00:51:06;4.90;;;4.27;;
2854;SDS011;1435;49.472;10.940;2023-05-07T00:56:08;3.60;;;3.40;;
2854;SDS011;1435;49.472;10.940;2023-05-07T01:01:11;4.67;;;3.93;;
2854;SDS011;1435;49.472;10.940;2023-05-07T01:06:13;6.90;;;4.57;;
2854;SDS011;1435;49.472;10.940;2023-05-07T01:11:16;4.03;;;3.63;;
2854;SDS011;1435;49.472;10.940;2023-05-07T01:16:20;4.20;;;3.90;;
2854;SDS011;1435;49.472;10.940;2023-05-07T01:21:23;4.43;;;4.07;;
2854;SDS011;1435;49.472;10.940;2023-05-07T01:26:28;4.10;;;3.80;;
2854;SDS011;1435;49.472;10.940;2023-05-07T01:31:30;4.00;;;3.40;;
2854;SDS011;1435;49.472;10.940;2023-05-07T01:36:33;3.70;;;3.40;;
2854;SDS011;1435;49.472;10.940;2023-05-07T01:41:38;3.60;;;3.30;;
2854;SDS011;1435;49.472;10.940;2023-05-07T01:46:40;4.43;;;4.03;;
2854;SDS011;1435;49.472;10.940;2023-05-07T01:51:41;3.40;;;3.20;;
2854;SDS011;1435;49.472;10.940;2023-05-07T01:56:45;5.57;;;5.07;;
2854;SDS011;1435;49.472;10.940;2023-05-07T02:01:48;4.10;;;3.80;;
2854;SDS011;1435;49.472;10.940;2023-05-07T02:06:49;4.20;;;3.80;;
2854;SDS011;1435;49.472;10.940;2023-05-07T02:11:52;4.07;;;3.67;;
2854;SDS011;1435;49.472;10.940;2023-05-07T02:16:54;4.30;;;3.90;;
2854;SDS011;1435;49.472;10.940;2023-05-07T02:21:56;4.80;;;4.40;;
2854;SDS011;1435;49.472;10.940;2023-05-07T02:26:59;3.80;;;3.40;;
2854;SDS011;1435;49.472;10.940;2023-05-07T02:32:00;3.90;;;3.57;;
2854;SDS011;1435;49.472;10.940;2023-05-07T02:37:02;3.83;;;3.33;;
2854;SDS011;1435;49.472;10.940;2023-05-07T02:42:05;3.47;;;3.17;;
2854;SDS011;1435;49.472;10.940;2023-05-07T02:47:06;6.50;;;3.47;;
2854;SDS011;1435;49.472;10.940;2023-05-07T02:52:09;4.17;;;3.77;;
2854;SDS011;1435;49.472;10.940;2023-05-07T02:57:12;3.57;;;3.33;;
2854;SDS011;1435;49.472;10.940;2023-05-07T03:02:14;5.40;;;3.23;;
2854;SDS011;1435;49.472;10.940;2023-05-07T03:07:16;3.47;;;3.17;;
2854;SDS011;1435;49.472;10.940;2023-05-07T03:12:19;4.43;;;4.03;;
2854;SDS011;1435;49.472;10.940;2023-05-07T03:17:21;4.27;;;3.77;;
2854;SDS011;1435;49.472;10.940;2023-05-07T03:22:23;4.27;;;3.93;;
2854;SDS011;1435;49.472;10.940;2023-05-07T03:27:26;3.80;;;3.50;;
2854;SDS011;1435;49.472;10.940;2023-05-07T03:32:27;4.90;;;4.40;;
2854;SDS011;1435;49.472;10.940;2023-05-07T03:37:29;4.40;;;3.40;;
2854;SDS011;1435;49.472;10.940;2023-05-07T03:42:33;4.93;;;3.87;;
2854;SDS011;1435;49.472;10.940;2023-05-07T03:47:35;4.70;;;3.47;;
2854;SDS011;1435;49.472;10.940;2023-05-07T03:52:38;4.50;;;4.10;;
2854;SDS011;1435;49.472;10.940;2023-05-07T03:57:42;4.57;;;4.17;;
2854;SDS011;1435;49.472;10.940;2023-05-07T04:02:44;4.40;;;4.00;;
2854;SDS011;1435;49.472;10.940;2023-05-07T04:07:46;4.60;;;3.90;;
2854;SDS011;1435;49.472;10.940;2023-05-07T04:12:49;5.33;;;4.87;;
2854;SDS011;1435;49.472;10.940;2023-05-07T04:17:51;4.70;;;4.30;;
2854;SDS011;1435;49.472;10.940;2023-05-07T04:22:52;5.37;;;3.97;;
2854;SDS011;1435;49.472;10.940;2023-05-07T04:27:56;4.73;;;4.30;;
2854;SDS011;1435;49.472;10.940;2023-05-07T04:32:58;4.93;;;4.60;;
2854;SDS011;1435;49.472;10.940;2023-05-07T04:38:00;6.33;;;5.73;;
2854;SDS011;1435;49.472;10.940;2023-05-07T04:43:03;5.17;;;4.77;;
2854;SDS011;1435;49.472;10.940;2023-05-07T04:48:05;4.50;;;4.20;;
2854;SDS011;1435;49.472;10.940;2023-05-07T04:53:07;5.33;;;4.93;;
2854;SDS011;1435;49.472;10.940;2023-05-07T04:58:10;6.10;;;5.50;;
2854;SDS011;1435;49.472;10.940;2023-05-07T05:03:12;7.40;;;6.80;;
2854;SDS011;1435;49.472;10.940;2023-05-07T05:08:13;9.17;;;8.23;;
2854;SDS011;1435;49.472;10.940;2023-05-07T05:13:16;8.50;;;7.80;;
2854;SDS011;1435;49.472;10.940;2023-05-07T05:18:18;9.07;;;8.20;;
2854;SDS011;1435;49.472;10.940;2023-05-07T05:23:20;8.27;;;7.47;;
2854;SDS011;1435;49.472;10.940;2023-05-07T05:28:23;10.27;;;8.67;;
2854;SDS011;1435;49.472;10.940;2023-05-07T05:33:25;9.23;;;8.33;;
2854;SDS011;1435;49.472;10.940;2023-05-07T05:38:26;13.73;;;9.30;;
2854;SDS011;1435;49.472;10.940;2023-05-07T05:43:29;9.83;;;8.93;;
2854;SDS011;1435;49.472;10.940;2023-05-07T05:48:31;8.43;;;7.73;;
2854;SDS011;1435;49.472;10.940;2023-05-07T05:53:33;10.00;;;9.10;;
2854;SDS011;1435;49.472;10.940;2023-05-07T05:58:36;13.03;;;9.20;;
2854;SDS011;1435;49.472;10.940;2023-05-07T06:03:38;9.90;;;8.87;;
2854;SDS011;1435;49.472;10.940;2023-05-07T06:08:40;10.37;;;9.37;;
2854;SDS011;1435;49.472;10.940;2023-05-07T06:13:43;9.83;;;8.83;;
2854;SDS011;1435;49.472;10.940;2023-05-07T06:18:44;10.20;;;9.20;;
2854;SDS011;1435;49.472;10.940;2023-05-07T06:23:46;9.80;;;8.80;;
2854;SDS011;1435;49.472;10.940;2023-05-07T06:28:49;12.33;;;10.67;;
2854;SDS011;1435;49.472;10.940;2023-05-07T06:33:51;8.93;;;8.13;;
2854;SDS011;1435;49.472;10.940;2023-05-07T06:38:53;10.10;;;8.87;;
2854;SDS011;1435;49.472;10.940;2023-05-07T06:43:56;10.00;;;8.30;;
2854;SDS011;1435;49.472;10.940;2023-05-07T06:48:58;10.50;;;9.60;;
2854;SDS011;1435;49.472;10.940;2023-05-07T06:54:00;11.23;;;9.17;;
2854;SDS011;1435;49.472;10.940;2023-05-07T06:59:03;8.40;;;7.70;;
2854;SDS011;1435;49.472;10.940;2023-05-07T07:04:04;10.27;;;9.27;;
2854;SDS011;1435;49.472;10.940;2023-05-07T07:09:06;9.77;;;8.63;;
2854;SDS011;1435;49.472;10.940;2023-05-07T07:14:09;9.43;;;8.43;;
2854;SDS011;1435;49.472;10.940;2023-05-07T07:19:11;10.13;;;8.90;;
2854;SDS011;1435;49.472;10.940;2023-05-07T07:24:15;9.00;;;8.20;;
2854;SDS011;1435;49.472;10.940;2023-05-07T07:29:22;9.37;;;8.47;;
2854;SDS011;1435;49.472;10.940;2023-05-07T07:34:26;8.83;;;7.90;;
2854;SDS011;1435;49.472;10.940;2023-05-07T07:39:30;9.10;;;8.20;;
2854;SDS011;1435;49.472;10.940;2023-05-07T07:44:33;9.50;;;8.60;;
2854;SDS011;1435;49.472;10.940;2023-05-07T07:49:35;8.43;;;7.70;;
2854;SDS011;1435;49.472;10.940;2023-05-07T07:54:36;8.43;;;7.63;;
2854;SDS011;1435;49.472;10.940;2023-05-07T07:59:39;7.97;;;7.27;;
2854;SDS011;1435;49.472;10.940;2023-05-07T08:04:43;8.93;;;8.20;;
2854;SDS011;1435;49.472;10.940;2023-05-07T08:09:44;8.10;;;7.30;;
2854;SDS011;1435;49.472;10.940;2023-05-07T08:14:48;9.00;;;8.20;;
2854;SDS011;1435;49.472;10.940;2023-05-07T08:19:49;7.87;;;7.07;;
2854;SDS011;1435;49.472;10.940;2023-05-07T08:24:51;8.30;;;7.53;;
2854;SDS011;1435;49.472;10.940;2023-05-07T08:29:55;8.27;;;7.47;;
2854;SDS011;1435;49.472;10.940;2023-05-07T08:34:56;8.60;;;7.90;;
2854;SDS011;1435;49.472;10.940;2023-05-07T08:39:58;9.00;;;8.17;;
2854;SDS011;1435;49.472;10.940;2023-05-07T08:45:01;7.50;;;6.90;;
2854;SDS011;1435;49.472;10.940;2023-05-07T08:50:06;7.57;;;6.87;;
2854;SDS011;1435;49.472;10.940;2023-05-07T08:55:09;8.93;;;7.80;;
2854;SDS011;1435;49.472;10.940;2023-05-07T09:00:13;7.63;;;7.03;;
2854;SDS011;1435;49.472;10.940;2023-05-07T09:05:15;8.50;;;7.80;;
2854;SDS011;1435;49.472;10.940;2023-05-07T09:10:17;7.77;;;7.17;;
2854;SDS011;1435;49.472;10.940;2023-05-07T09:15:20;7.10;;;6.60;;
2854;SDS011;1435;49.472;10.940;2023-05-07T09:20:22;7.90;;;7.20;;
2854;SDS011;1435;49.472;10.940;2023-05-07T09:25:30;7.30;;;6.60;;
2854;SDS011;1435;49.472;10.940;2023-05-07T09:30:34;7.40;;;6.80;;
2854;SDS011;1435;49.472;10.940;2023-05-07T09:35:35;6.53;;;6.00;;
2854;SDS011;1435;49.472;10.940;2023-05-07T09:40:39;7.40;;;6.70;;
2854;SDS011;1435;49.472;10.940;2023-05-07T09:45:42;7.07;;;6.37;;
2854;SDS011;1435;49.472;10.940;2023-05-07T09:50:45;6.80;;;6.10;;
2854;SDS011;1435;49.472;10.940;2023-05-07T09:55:50;6.67;;;6.17;;
2854;SDS011;1435;49.472;10.940;2023-05-07T10:00:54;6.90;;;6.30;;
2854;SDS011;1435;49.472;10.940;2023-05-07T10:05:57;5.73;;;5.23;;
2854;SDS011;1435;49.472;10.940;2023-05-07T10:11:00;5.70;;;5.30;;
2854;SDS011;1435;49.472;10.940;2023-05-07T10:16:04;5.90;;;5.50;;
2854;SDS011;1435;49.472;10.940;2023-05-07T10:21:07;5.90;;;5.40;;
2854;SDS011;1435;49.472;10.940;2023-05-07T10:26:12;5.30;;;4.90;;
2854;SDS011;1435;49.472;10.940;2023-05-07T10:31:23;5.67;;;4.63;;
2854;SDS011;1435;49.472;10.940;2023-05-07T10:36:43;5.47;;;4.97;;
2854;SDS011;1435;49.472;10.940;2023-05-07T10:41:45;7.63;;;5.40;;
2854;SDS011;1435;49.472;10.940;2023-05-07T10:47:04;5.40;;;5.00;;
2854;SDS011;1435;49.472;10.940;2023-05-07T10:52:13;5.83;;;5.33;;
2854;SDS011;1435;49.472;10.940;2023-05-07T10:57:34;7.17;;;5.70;;
2854;SDS011;1435;49.472;10.940;2023-05-07T11:08:08;7.67;;;5.60;;
2854;SDS011;1435;49.472;10.940;2023-05-07T11:13:10;4.67;;;4.37;;
2854;SDS011;1435;49.472;10.940;2023-05-07T11:18:14;5.77;;;5.20;;
2854;SDS011;1435;49.472;10.940;2023-05-07T11:29:01;4.93;;;4.53;;
2854;SDS011;1435;49.472;10.940;2023-05-07T11:34:04;4.93;;;4.53;;
2854;SDS011;1435;49.472;10.940;2023-05-07T11:44:24;5.10;;;4.60;;
2854;SDS011;1435;49.472;10.940;2023-05-07T11:49:27;5.10;;;4.70;;
2854;SDS011;1435;49.472;10.940;2023-05-07T11:54:34;4.67;;;4.30;;
2854;SDS011;1435;49.472;10.940;2023-05-07T11:59:39;4.30;;;3.90;;
2854;SDS011;1435;49.472;10.940;2023-05-07T12:04:42;3.23;;;3.03;;
2854;SDS011;1435;49.472;10.940;2023-05-07T12:09:45;5.07;;;4.57;;
2854;SDS011;1435;49.472;10.940;2023-05-07T12:14:50;5.07;;;4.00;;
2854;SDS011;1435;49.472;10.940;2023-05-07T12:19:53;5.03;;;4.63;;
2854;SDS011;1435;49.472;10.940;2023-05-07T12:24:56;4.13;;;3.80;;
2854;SDS011;1435;49.472;10.940;2023-05-07T12:29:58;3.53;;;3.33;;
2854;SDS011;1435;49.472;10.940;2023-05-07T12:35:01;3.70;;;3.40;;
2854;SDS011;1435;49.472;10.940;2023-05-07T12:40:04;3.23;;;3.03;;
2854;SDS011;1435;49.472;10.940;2023-05-07T12:45:07;3.60;;;3.40;;
2854;SDS011;1435;49.472;10.940;2023-05-07T12:50:11;4.07;;;3.67;;
2854;SDS011;1435;49.472;10.940;2023-05-07T12:55:15;4.83;;;4.50;;
2854;SDS011;1435;49.472;10.940;2023-05-07T13:00:17;4.50;;;4.10;;
2854;SDS011;1435;49.472;10.940;2023-05-07T13:05:20;5.00;;;4.60;;
2854;SDS011;1435;49.472;10.940;2023-05-07T13:10:22;4.50;;;4.20;;
2854;SDS011;1435;49.472;10.940;2023-05-07T13:15:24;3.90;;;3.60;;
2854;SDS011;1435;49.472;10.940;2023-05-07T13:20:28;4.63;;;4.33;;
2854;SDS011;1435;49.472;10.940;2023-05-07T13:25:30;3.93;;;3.63;;
2854;SDS011;1435;49.472;10.940;2023-05-07T13:30:31;3.90;;;3.60;;
2854;SDS011;1435;49.472;10.940;2023-05-07T13:35:34;3.97;;;3.67;;
2854;SDS011;1435;49.472;10.940;2023-05-07T13:40:36;4.00;;;3.70;;
2854;SDS011;1435;49.472;10.940;2023-05-07T13:45:38;3.27;;;3.00;;
2854;SDS011;1435;49.472;10.940;2023-05-07T13:50:41;5.30;;;3.33;;
2854;SDS011;1435;49.472;10.940;2023-05-07T13:55:43;3.53;;;3.33;;
2854;SDS011;1435;49.472;10.940;2023-05-07T14:00:44;5.10;;;3.60;;
2854;SDS011;1435;49.472;10.940;2023-05-07T14:05:47;3.60;;;3.30;;
2854;SDS011;1435;49.472;10.940;2023-05-07T14:10:49;4.23;;;3.93;;
2854;SDS011;1435;49.472;10.940;2023-05-07T14:15:51;4.10;;;3.80;;
2854;SDS011;1435;49.472;10.940;2023-05-07T14:20:54;3.60;;;3.40;;
2854;SDS011;1435;49.472;10.940;2023-05-07T14:25:55;4.23;;;3.83;;
2854;SDS011;1435;49.472;10.940;2023-05-07T14:30:57;4.50;;;4.10;;
2854;SDS011;1435;49.472;10.940;2023-05-07T14:36:01;4.57;;;4.20;;
2854;SDS011;1435;49.472;10.940;2023-05-07T14:41:03;4.10;;;3.80;;
2854;SDS011;1435;49.472;10.940;2023-05-07T14:46:05;3.90;;;3.60;;
2854;SDS011;1435;49.472;10.940;2023-05-07T14:51:08;4.10;;;3.73;;
2854;SDS011;1435;49.472;10.940;2023-05-07T14:56:09;4.90;;;4.43;;
2854;SDS011;1435;49.472;10.940;2023-05-07T15:01:11;5.07;;;4.57;;
2854;SDS011;1435;49.472;10.940;2023-05-07T15:06:14;4.90;;;4.50;;
2854;SDS011;1435;49.472;10.940;2023-05-07T15:11:16;5.17;;;4.40;;
2854;SDS011;1435;49.472;10.940;2023-05-07T15:16:18;5.93;;;4.13;;
2854;SDS011;1435;49.472;10.940;2023-05-07T15:21:21;4.60;;;4.23;;
2854;SDS011;1435;49.472;10.940;2023-05-07T15:26:23;4.77;;;4.37;;
2854;SDS011;1435;49.472;10.940;2023-05-07T15:31:25;5.03;;;4.53;;
2854;SDS011;1435;49.472;10.940;2023-05-07T15:36:28;4.70;;;4.30;;
2854;SDS011;1435;49.472;10.940;2023-05-07T15:41:30;4.83;;;4.30;;
2854;SDS011;1435;49.472;10.940;2023-05-07T15:46:32;4.80;;;4.40;;
2854;SDS011;1435;49.472;10.940;2023-05-07T15:51:35;4.60;;;4.20;;
2854;SDS011;1435;49.472;10.940;2023-05-07T15:56:36;5.03;;;4.63;;
2854;SDS011;1435;49.472;10.940;2023-05-07T16:01:38;5.80;;;4.47;;
2854;SDS011;1435;49.472;10.940;2023-05-07T16:06:42;6.23;;;5.67;;
2854;SDS011;1435;49.472;10.940;2023-05-07T16:11:46;6.80;;;6.30;;
2854;SDS011;1435;49.472;10.940;2023-05-07T16:16:47;6.50;;;6.00;;
2854;SDS011;1435;49.472;10.940;2023-05-07T16:21:50;5.40;;;4.87;;
2854;SDS011;1435;49.472;10.940;2023-05-07T16:26:52;5.53;;;5.03;;
2854;SDS011;1435;49.472;10.940;2023-05-07T16:31:55;4.87;;;4.37;;
2854;SDS011;1435;49.472;10.940;2023-05-07T16:36:59;4.90;;;4.50;;
2854;SDS011;1435;49.472;10.940;2023-05-07T16:42:00;5.20;;;4.80;;
2854;SDS011;1435;49.472;10.940;2023-05-07T16:47:02;4.43;;;4.13;;
2854;SDS011;1435;49.472;10.940;2023-05-07T16:52:05;4.57;;;4.17;;
2854;SDS011;1435;49.472;10.940;2023-05-07T16:57:07;6.07;;;5.50;;
2854;SDS011;1435;49.472;10.940;2023-05-07T17:02:09;5.70;;;5.20;;
2854;SDS011;1435;49.472;10.940;2023-05-07T17:07:12;5.90;;;5.30;;
2854;SDS011;1435;49.472;10.940;2023-05-07T17:12:15;6.27;;;5.67;;
2854;SDS011;1435;49.472;10.940;2023-05-07T17:17:17;4.90;;;4.50;;
2854;SDS011;1435;49.472;10.940;2023-05-07T17:22:20;5.17;;;4.70;;
2854;SDS011;1435;49.472;10.940;2023-05-07T17:27:21;4.90;;;4.33;;
2854;SDS011;1435;49.472;10.940;2023-05-07T17:32:23;4.90;;;4.50;;
2854;SDS011;1435;49.472;10.940;2023-05-07T17:37:26;5.63;;;4.43;;
2854;SDS011;1435;49.472;10.940;2023-05-07T17:42:28;4.33;;;4.00;;
2854;SDS011;1435;49.472;10.940;2023-05-07T17:47:30;4.03;;;3.73;;
2854;SDS011;1435;49.472;10.940;2023-05-07T17:52:33;5.73;;;4.30;;
2854;SDS011;1435;49.472;10.940;2023-05-07T17:57:35;6.10;;;4.43;;
2854;SDS011;1435;49.472;10.940;2023-05-07T18:02:38;4.57;;;4.17;;
2854;SDS011;1435;49.472;10.940;2023-05-07T18:07:42;5.87;;;5.27;;
2854;SDS011;1435;49.472;10.940;2023-05-07T18:12:43;5.20;;;4.70;;
2854;SDS011;1435;49.472;10.940;2023-05-07T18:17:45;4.97;;;4.53;;
2854;SDS011;1435;49.472;10.940;2023-05-07T18:22:48;5.27;;;4.77;;
2854;SDS011;1435;49.472;10.940;2023-05-07T18:27:50;5.03;;;4.63;;
2854;SDS011;1435;49.472;10.940;2023-05-07T18:32:52;4.53;;;4.13;;
2854;SDS011;1435;49.472;10.940;2023-05-07T18:37:55;4.50;;;4.10;;
2854;SDS011;1435;49.472;10.940;2023-05-07T18:42:56;5.37;;;4.87;;
2854;SDS011;1435;49.472;10.940;2023-05-07T18:47:59;8.70;;;5.00;;
2854;SDS011;1435;49.472;10.940;2023-05-07T18:53:02;4.97;;;4.50;;
2854;SDS011;1435;49.472;10.940;2023-05-07T18:58:04;4.80;;;4.40;;
2854;SDS011;1435;49.472;10.940;2023-05-07T19:03:06;5.60;;;4.83;;
2854;SDS011;1435;49.472;10.940;2023-05-07T19:08:09;4.57;;;4.17;;
2854;SDS011;1435;49.472;10.940;2023-05-07T19:13:11;4.80;;;4.40;;
2854;SDS011;1435;49.472;10.940;2023-05-07T19:18:12;4.33;;;3.93;;
2854;SDS011;1435;49.472;10.940;2023-05-07T19:23:15;5.00;;;4.60;;
2854;SDS011;1435;49.472;10.940;2023-05-07T19:28:17;4.50;;;4.10;;
2854;SDS011;1435;49.472;10.940;2023-05-07T19:33:19;4.50;;;4.10;;
2854;SDS011;1435;49.472;10.940;2023-05-07T19:38:22;5.90;;;4.60;;
2854;SDS011;1435;49.472;10.940;2023-05-07T19:43:24;4.80;;;4.40;;
2854;SDS011;1435;49.472;10.940;2023-05-07T19:48:25;4.13;;;3.73;;
2854;SDS011;1435;49.472;10.940;2023-05-07T19:53:28;5.00;;;4.30;;
2854;SDS011;1435;49.472;10.940;2023-05-07T19:58:30;5.67;;;5.17;;
2854;SDS011;1435;49.472;10.940;2023-05-07T20:03:32;4.73;;;4.33;;
2854;SDS011;1435;49.472;10.940;2023-05-07T20:08:36;5.10;;;4.70;;
2854;SDS011;1435;49.472;10.940;2023-05-07T20:13:38;4.83;;;4.40;;
2854;SDS011;1435;49.472;10.940;2023-05-07T20:18:39;5.00;;;4.60;;
2854;SDS011;1435;49.472;10.940;2023-05-07T20:23:42;6.17;;;5.67;;
2854;SDS011;1435;49.472;10.940;2023-05-07T20:28:44;4.83;;;4.43;;
2854;SDS011;1435;49.472;10.940;2023-05-07T20:33:46;4.20;;;3.80;;
2854;SDS011;1435;49.472;10.940;2023-05-07T20:38:49;7.23;;;4.33;;
2854;SDS011;1435;49.472;10.940;2023-05-07T20:43:51;5.43;;;4.93;;
2854;SDS011;1435;49.472;10.940;2023-05-07T20:48:52;5.27;;;4.87;;
2854;SDS011;1435;49.472;10.940;2023-05-07T20:53:56;5.70;;;4.93;;
2854;SDS011;1435;49.472;10.940;2023-05-07T20:58:58;5.03;;;4.53;;
2854;SDS011;1435;49.472;10.940;2023-05-07T21:04:00;4.47;;;4.07;;
2854;SDS011;1435;49.472;10.940;2023-05-07T21:09:04;5.03;;;4.40;;
2854;SDS011;1435;49.472;10.940;2023-05-07T21:14:06;5.40;;;4.90;;
2854;SDS011;1435;49.472;10.940;2023-05-07T21:19:08;4.40;;;4.10;;
2854;SDS011;1435;49.472;10.940;2023-05-07T21:24:11;5.37;;;4.87;;
2854;SDS011;1435;49.472;10.940;2023-05-07T21:29:13;5.60;;;5.20;;
2854;SDS011;1435;49.472;10.940;2023-05-07T21:34:15;5.17;;;4.67;;
2854;SDS011;1435;49.472;10.940;2023-05-07T21:39:19;7.50;;;4.63;;
2854;SDS011;1435;49.472;10.940;2023-05-07T21:44:21;5.07;;;4.57;;
2854;SDS011;1435;49.472;10.940;2023-05-07T21:49:23;5.10;;;4.60;;
2854;SDS011;1435;49.472;10.940;2023-05-07T21:54:26;4.47;;;4.17;;
2854;SDS011;1435;49.472;10.940;2023-05-07T21:59:28;4.93;;;4.53;;
2854;SDS011;1435;49.472;10.940;2023-05-07T22:04:30;8.30;;;4.77;;
2854;SDS011;1435;49.472;10.940;2023-05-07T22:09:33;6.90;;;4.93;;
2854;SDS011;1435;49.472;10.940;2023-05-07T22:14:35;4.80;;;4.30;;
2854;SDS011;1435;49.472;10.940;2023-05-07T22:19:37;5.83;;;5.33;;
2854;SDS011;1435;49.472;10.940;2023-05-07T22:24:41;5.60;;;5.10;;
2854;SDS011;1435;49.472;10.940;2023-05-07T22:29:42;5.77;;;4.70;;
2854;SDS011;1435;49.472;10.940;2023-05-07T22:34:44;5.07;;;4.60;;
2854;SDS011;1435;49.472;10.940;2023-05-07T22:39:47;5.30;;;4.90;;
2854;SDS011;1435;49.472;10.940;2023-05-07T22:44:50;5.83;;;4.87;;
2854;SDS011;1435;49.472;10.940;2023-05-07T22:49:52;4.90;;;4.50;;
2854;SDS011;1435;49.472;10.940;2023-05-07T22:54:55;4.63;;;4.23;;
2854;SDS011;1435;49.472;10.940;2023-05-07T22:59:56;5.00;;;4.60;;
2854;SDS011;1435;49.472;10.940;2023-05-07T23:04:58;7.70;;;5.77;;
2854;SDS011;1435;49.472;10.940;2023-05-07T23:10:02;5.90;;;5.40;;
2854;SDS011;1435;49.472;10.940;2023-05-07T23:15:04;6.40;;;5.77;;
2854;SDS011;1435;49.472;10.940;2023-05-07T23:20:07;6.17;;;5.67;;
2854;SDS011;1435;49.472;10.940;2023-05-07T23:25:10;5.50;;;5.10;;
2854;SDS011;1435;49.472;10.940;2023-05-07T23:30:12;6.33;;;5.80;;
2854;SDS011;1435;49.472;10.940;2023-05-07T23:35:14;5.50;;;4.90;;
2854;SDS011;1435;49.472;10.940;2023-05-07T23:40:17;6.03;;;5.43;;
2854;SDS011;1435;49.472;10.940;2023-05-07T23:45:19;5.90;;;5.40;;
2854;SDS011;1435;49.472;10.940;2023-05-07T23:50:21;5.77;;;5.30;;
2854;SDS011;1435;49.472;10.940;2023-05-07T23:55:24;6.17;;;5.60;;
